createdAt,value
2024-05-09T00:02:29.172Z,14.47
2024-05-09T00:05:03.392Z,14.48
2024-05-09T00:07:36.002Z,14.44
2024-05-09T00:10:11.792Z,14.48
2024-05-09T00:12:48.375Z,14.56
2024-05-09T00:15:18.731Z,14.54
2024-05-09T00:17:50.519Z,14.56
2024-05-09T00:20:28.503Z,14.61
2024-05-09T00:23:08.761Z,14.63
2024-05-09T00:25:40.439Z,14.57
2024-05-09T00:28:12.615Z,14.57
2024-05-09T00:30:44.116Z,14.60
2024-05-09T00:33:15.344Z,14.60
2024-05-09T00:35:48.349Z,14.63
2024-05-09T00:38:19.460Z,14.63
2024-05-09T00:40:50.605Z,14.56
2024-05-09T00:43:21.641Z,14.58
2024-05-09T00:45:53.734Z,14.57
2024-05-09T00:48:26.962Z,14.47
2024-05-09T00:51:00.957Z,14.51
2024-05-09T00:53:33.791Z,14.51
2024-05-09T00:56:04.375Z,14.41
2024-05-09T00:58:35.179Z,14.51
2024-05-09T01:01:06.145Z,14.42
2024-05-09T01:03:37.581Z,14.37
2024-05-09T01:06:12.058Z,14.31
2024-05-09T01:08:45.018Z,14.40
2024-05-09T01:11:17.997Z,14.44
2024-05-09T01:13:49.044Z,14.36
2024-05-09T01:16:22.078Z,14.28
2024-05-09T01:18:53.201Z,14.33
2024-05-09T01:21:27.223Z,14.33
2024-05-09T01:24:02.069Z,14.36
2024-05-09T01:26:33.175Z,14.28
2024-05-09T01:29:04.004Z,14.24
2024-05-09T01:31:36.961Z,14.23
2024-05-09T01:34:08.864Z,14.24
2024-05-09T01:36:41.037Z,14.23
2024-05-09T01:39:14.387Z,14.16
2024-05-09T01:41:45.302Z,14.09
2024-05-09T01:44:17.590Z,14.07
2024-05-09T01:46:48.322Z,14.09
2024-05-09T01:49:18.824Z,14.10
2024-05-09T01:51:51.324Z,14.14
2024-05-09T01:54:24.750Z,14.05
2024-05-09T01:56:56.289Z,14.09
2024-05-09T01:59:28.568Z,14.19
2024-05-09T02:01:59.451Z,14.07
2024-05-09T02:04:31.017Z,13.92
2024-05-09T02:07:01.826Z,13.83
2024-05-09T02:09:35.701Z,13.86
2024-05-09T02:12:06.873Z,13.79
2024-05-09T02:14:37.201Z,13.71
2024-05-09T02:17:08.113Z,13.66
2024-05-09T02:19:38.444Z,13.63
2024-05-09T02:22:09.171Z,13.59
2024-05-09T02:24:41.971Z,13.52
2024-05-09T02:27:12.830Z,13.42
2024-05-09T02:29:43.213Z,13.52
2024-05-09T02:32:14.797Z,13.55
2024-05-09T02:34:44.080Z,13.69
2024-05-09T02:37:14.451Z,13.66
2024-05-09T02:39:45.366Z,13.62
2024-05-09T02:42:15.981Z,13.71
2024-05-09T02:44:44.648Z,13.71
2024-05-09T02:47:16.763Z,13.61
2024-05-09T02:49:45.900Z,13.55
2024-05-09T02:52:20.152Z,13.50
2024-05-09T02:54:52.630Z,13.50
2024-05-09T02:57:23.207Z,13.50
2024-05-09T02:59:52.489Z,13.48
2024-05-09T03:02:25.337Z,13.42
2024-05-09T03:04:53.360Z,13.42
2024-05-09T03:07:25.628Z,13.42
2024-05-09T03:09:56.800Z,13.37
2024-05-09T03:12:28.429Z,13.38
2024-05-09T03:14:58.031Z,13.34
2024-05-09T03:17:29.462Z,13.25
2024-05-09T03:19:59.207Z,13.24
2024-05-09T03:22:31.662Z,13.25
2024-05-09T03:25:02.768Z,13.30
2024-05-09T03:27:34.100Z,13.25
2024-05-09T03:30:04.024Z,13.31
2024-05-09T03:32:37.424Z,13.31
2024-05-09T03:35:06.162Z,13.30
2024-05-09T03:37:37.274Z,13.21
2024-05-09T03:40:20.253Z,13.25
2024-05-09T03:42:56.397Z,13.25
2024-05-09T03:45:27.101Z,13.10
2024-05-09T03:47:56.474Z,13.00
2024-05-09T03:50:33.839Z,13.07
2024-05-09T03:53:06.952Z,12.99
2024-05-09T03:55:37.095Z,13.00
2024-05-09T03:58:08.396Z,12.90
2024-05-09T04:00:39.451Z,12.92
2024-05-09T04:03:12.449Z,12.96
2024-05-09T04:05:42.942Z,12.94
2024-05-09T04:08:15.308Z,13.08
2024-05-09T04:10:47.596Z,13.06
2024-05-09T04:13:18.051Z,13.06
2024-05-09T04:15:46.461Z,13.15
2024-05-09T04:18:17.531Z,13.18
2024-05-09T04:20:45.284Z,13.15
2024-05-09T04:23:16.824Z,13.25
2024-05-09T04:25:47.879Z,13.28
2024-05-09T04:28:20.272Z,13.30
2024-05-09T04:30:47.795Z,13.37
2024-05-09T04:33:20.246Z,13.35
2024-05-09T04:35:50.001Z,13.31
2024-05-09T04:38:21.243Z,13.35
2024-05-09T04:40:52.100Z,13.40
2024-05-09T04:43:23.481Z,13.35
2024-05-09T04:45:52.564Z,13.38
2024-05-09T04:48:24.639Z,13.37
2024-05-09T04:50:54.205Z,13.38
2024-05-09T04:53:27.416Z,13.40
2024-05-09T04:55:58.120Z,13.55
2024-05-09T04:58:29.864Z,13.75
2024-05-09T05:00:58.430Z,13.79
2024-05-09T05:03:30.175Z,13.90
2024-05-09T05:05:59.210Z,13.96
2024-05-09T05:08:31.836Z,14.10
2024-05-09T05:11:04.373Z,14.26
2024-05-09T05:13:37.876Z,14.52
2024-05-09T05:16:09.161Z,14.65
2024-05-09T05:18:40.242Z,14.67
2024-05-09T05:21:09.346Z,14.63
2024-05-09T05:23:41.402Z,14.52
2024-05-09T05:26:13.489Z,14.54
2024-05-09T05:28:45.731Z,14.44
2024-05-09T05:31:15.320Z,14.48
2024-05-09T05:33:46.379Z,14.40
2024-05-09T05:36:14.665Z,14.44
2024-05-09T05:38:47.152Z,14.40
2024-05-09T05:41:18.826Z,14.42
2024-05-09T05:43:49.828Z,14.49
2024-05-09T05:46:17.827Z,14.37
2024-05-09T05:48:50.321Z,14.51
2024-05-09T05:51:18.731Z,14.42
2024-05-09T05:53:50.928Z,14.38
2024-05-09T05:56:21.913Z,14.40
2024-05-09T05:58:53.229Z,14.37
2024-05-09T06:01:22.717Z,14.54
2024-05-09T06:03:53.368Z,14.48
2024-05-09T06:06:23.421Z,14.54
2024-05-09T06:08:53.662Z,14.64
2024-05-09T06:11:24.685Z,14.79
2024-05-09T06:13:55.165Z,14.75
2024-05-09T06:16:23.730Z,14.74
2024-05-09T06:18:54.141Z,14.78
2024-05-09T06:21:23.884Z,15.02
2024-05-09T06:23:55.030Z,14.92
2024-05-09T06:26:26.904Z,14.99
2024-05-09T06:28:59.221Z,15.26
2024-05-09T06:31:27.709Z,15.39
2024-05-09T06:33:58.772Z,15.34
2024-05-09T06:36:27.850Z,15.55
2024-05-09T06:39:00.318Z,15.78
2024-05-09T06:41:32.535Z,16.18
2024-05-09T06:44:04.550Z,16.73
2024-05-09T06:46:32.652Z,16.22
2024-05-09T06:49:08.538Z,16.46
2024-05-09T06:51:38.451Z,16.74
2024-05-09T06:54:10.176Z,17.19
2024-05-09T06:56:40.513Z,17.29
2024-05-09T06:59:11.577Z,17.38
2024-05-09T07:01:40.460Z,16.83
2024-05-09T07:04:11.387Z,17.11
2024-05-09T07:06:39.440Z,16.71
2024-05-09T07:09:11.031Z,16.97
2024-05-09T07:11:43.325Z,17.25
2024-05-09T07:14:14.650Z,17.01
2024-05-09T07:16:42.538Z,17.31
2024-05-09T07:19:14.864Z,17.42
2024-05-09T07:21:43.037Z,17.50
2024-05-09T07:24:15.043Z,17.25
2024-05-09T07:26:45.628Z,17.14
2024-05-09T07:29:16.434Z,17.53
2024-05-09T07:31:44.699Z,17.59
2024-05-09T07:34:17.431Z,17.91
2024-05-09T07:36:46.438Z,17.89
2024-05-09T07:39:17.400Z,17.53
2024-05-09T07:41:48.185Z,17.69
2024-05-09T07:44:18.644Z,17.57
2024-05-09T07:47:48.487Z,17.79
2024-05-09T07:54:41.134Z,18.03
2024-05-09T07:57:13.458Z,18.40
2024-05-09T07:59:43.720Z,18.27
2024-05-09T08:02:13.456Z,18.27
2024-05-09T08:04:46.630Z,18.34
2024-05-09T08:07:15.298Z,18.52
2024-05-09T08:09:45.678Z,18.24
2024-05-09T08:12:17.296Z,18.44
2024-05-09T08:14:50.674Z,18.55
2024-05-09T08:17:21.513Z,18.58
2024-05-09T08:19:52.416Z,18.28
2024-05-09T08:22:21.141Z,18.96
2024-05-09T08:24:54.494Z,18.75
2024-05-09T08:27:27.853Z,18.14
2024-05-09T08:29:59.271Z,18.86
2024-05-09T08:32:29.158Z,18.52
2024-05-09T08:35:00.221Z,18.71
2024-05-09T08:37:32.832Z,18.92
2024-05-09T08:40:11.129Z,19.00
2024-05-09T08:42:49.198Z,18.96
2024-05-09T08:45:21.535Z,19.13
2024-05-09T08:47:50.738Z,19.03
2024-05-09T08:50:31.434Z,18.49
2024-05-09T08:53:06.127Z,18.77
2024-05-09T08:55:40.560Z,18.73
2024-05-09T08:58:16.214Z,18.90
2024-05-09T09:00:48.686Z,19.04
2024-05-09T09:03:18.679Z,19.23
2024-05-09T09:05:55.514Z,18.75
2024-05-09T09:08:23.904Z,18.85
2024-05-09T09:10:55.662Z,18.98
2024-05-09T09:13:27.209Z,19.27
2024-05-09T09:15:59.366Z,19.02
2024-05-09T09:18:28.430Z,19.53
2024-05-09T09:21:00.495Z,19.92
2024-05-09T09:23:30.107Z,18.98
2024-05-09T09:26:02.704Z,19.55
2024-05-09T09:28:36.938Z,19.93
2024-05-09T09:31:09.405Z,19.67
2024-05-09T09:33:42.616Z,19.62
2024-05-09T09:36:14.456Z,19.99
2024-05-09T09:38:42.707Z,19.16
2024-05-09T09:41:15.866Z,19.88
2024-05-09T09:43:47.180Z,19.50
2024-05-09T09:46:18.952Z,19.78
2024-05-09T09:48:48.447Z,20.30
2024-05-09T09:51:19.956Z,19.61
2024-05-09T09:53:48.205Z,19.74
2024-05-09T09:56:20.480Z,19.95
2024-05-09T09:58:51.798Z,19.74
2024-05-09T10:01:25.370Z,19.75
2024-05-09T10:03:54.016Z,20.08
2024-05-09T10:06:25.991Z,20.12
2024-05-09T10:08:54.823Z,20.67
2024-05-09T10:11:27.133Z,20.32
2024-05-09T10:13:57.625Z,20.65
2024-05-09T10:16:28.022Z,20.47
2024-05-09T10:18:56.571Z,20.53
2024-05-09T10:21:27.056Z,20.81
2024-05-09T10:24:00.033Z,20.44
2024-05-09T10:26:35.490Z,20.58
2024-05-09T10:29:16.652Z,20.78
2024-05-09T10:31:46.195Z,21.11
2024-05-09T10:34:21.022Z,20.81
2024-05-09T10:36:54.549Z,20.60
2024-05-09T10:39:26.915Z,21.22
2024-05-09T10:41:54.482Z,21.11
2024-05-09T10:44:29.568Z,21.19
2024-05-09T10:46:57.178Z,21.73
2024-05-09T10:49:28.074Z,21.97
2024-05-09T10:51:56.402Z,21.54
2024-05-09T10:54:26.814Z,22.04
2024-05-09T10:56:58.714Z,21.94
2024-05-09T10:59:37.094Z,21.43
2024-05-09T11:02:08.113Z,21.60
2024-05-09T11:04:39.364Z,21.88
2024-05-09T11:07:09.321Z,21.61
2024-05-09T11:09:41.463Z,21.56
2024-05-09T11:12:10.007Z,21.49
2024-05-09T11:14:44.605Z,21.21
2024-05-09T11:17:13.548Z,21.66
2024-05-09T11:19:46.753Z,21.77
2024-05-09T11:22:16.542Z,21.77
2024-05-09T11:24:47.567Z,21.43
2024-05-09T11:27:15.864Z,21.51
2024-05-09T11:29:49.671Z,21.51
2024-05-09T11:32:28.681Z,21.59
2024-05-09T11:34:59.739Z,21.23
2024-05-09T11:37:27.439Z,21.38
2024-05-09T11:39:59.257Z,21.66
2024-05-09T11:42:27.749Z,21.56
2024-05-09T11:45:01.344Z,21.78
2024-05-09T11:47:29.861Z,21.90
2024-05-09T11:50:00.436Z,21.50
2024-05-09T11:52:29.308Z,21.93
2024-05-09T11:55:00.055Z,21.73
2024-05-09T11:57:29.452Z,22.08
2024-05-09T12:00:05.606Z,21.81
2024-05-09T12:02:33.833Z,21.86
2024-05-09T12:05:04.648Z,21.91
2024-05-09T12:07:32.922Z,22.45
2024-05-09T12:10:04.660Z,21.71
2024-05-09T12:12:37.227Z,22.34
2024-05-09T12:15:11.545Z,22.51
2024-05-09T12:17:40.501Z,22.48
2024-05-09T12:20:21.085Z,22.28
2024-05-09T12:22:53.278Z,22.31
2024-05-09T12:25:24.377Z,22.18
2024-05-09T12:27:52.808Z,22.48
2024-05-09T12:30:34.865Z,23.07
2024-05-09T12:33:06.542Z,23.20
2024-05-09T12:35:37.830Z,23.14
2024-05-09T12:38:05.977Z,22.92
2024-05-09T12:40:38.946Z,22.62
2024-05-09T12:43:09.091Z,23.28
2024-05-09T12:45:44.828Z,22.87
2024-05-09T12:48:13.577Z,22.80
2024-05-09T12:50:44.288Z,23.18
2024-05-09T12:53:12.702Z,22.80
2024-05-09T12:55:53.168Z,23.00
2024-05-09T12:58:25.191Z,22.59
2024-05-09T13:00:59.577Z,22.75
2024-05-09T13:03:28.251Z,22.90
2024-05-09T13:05:59.567Z,23.23
2024-05-09T13:08:27.701Z,23.21
2024-05-09T13:10:59.985Z,22.70
2024-05-09T13:13:29.267Z,23.15
2024-05-09T13:16:03.568Z,22.96
2024-05-09T13:18:33.497Z,22.86
2024-05-09T13:21:05.844Z,22.97
2024-05-09T13:23:34.457Z,22.84
2024-05-09T13:26:05.882Z,22.79
2024-05-09T13:28:34.208Z,22.82
2024-05-09T13:31:08.222Z,22.29
2024-05-09T13:33:36.958Z,22.87
2024-05-09T13:36:08.567Z,22.97
2024-05-09T13:38:36.662Z,22.62
2024-05-09T13:41:07.981Z,22.89
2024-05-09T13:43:36.174Z,22.75
2024-05-09T13:46:09.559Z,22.83
2024-05-09T13:48:39.146Z,22.62
2024-05-09T13:51:10.846Z,22.79
2024-05-09T13:53:38.931Z,23.02
2024-05-09T13:56:10.273Z,22.86
2024-05-09T13:58:38.460Z,22.97
2024-05-09T14:01:11.971Z,22.94
2024-05-09T14:03:39.824Z,22.53
2024-05-09T14:06:12.995Z,22.57
2024-05-09T14:08:40.874Z,22.56
2024-05-09T14:11:11.397Z,22.80
2024-05-09T14:13:39.416Z,22.24
2024-05-09T14:16:12.662Z,22.69
2024-05-09T14:18:41.171Z,22.86
2024-05-09T14:21:14.569Z,22.77
2024-05-09T14:23:43.470Z,22.21
2024-05-09T14:26:14.455Z,22.69
2024-05-09T14:28:42.707Z,22.93
2024-05-09T14:31:16.408Z,22.84
2024-05-09T14:33:44.940Z,22.76
2024-05-09T14:36:19.170Z,23.13
2024-05-09T14:38:47.990Z,22.90
2024-05-09T14:41:19.074Z,22.82
2024-05-09T14:43:47.462Z,22.90
2024-05-09T14:46:20.588Z,23.08
2024-05-09T14:48:49.571Z,23.06
2024-05-09T14:51:20.844Z,22.84
2024-05-09T14:53:50.624Z,22.66
2024-05-09T14:56:22.355Z,22.70
2024-05-09T14:58:50.997Z,23.02
2024-05-09T15:01:25.090Z,23.04
2024-05-09T15:03:54.454Z,22.84
2024-05-09T15:06:27.125Z,22.70
2024-05-09T15:08:56.767Z,22.89
2024-05-09T15:11:27.909Z,22.94
2024-05-09T15:13:55.512Z,22.77
2024-05-09T15:16:29.786Z,23.04
2024-05-09T15:18:59.612Z,22.93
2024-05-09T15:21:32.124Z,23.03
2024-05-09T15:24:00.540Z,22.66
2024-05-09T15:26:32.310Z,22.80
2024-05-09T15:29:02.115Z,24.16
2024-05-09T15:31:34.993Z,23.24
2024-05-09T15:34:02.686Z,23.02
2024-05-09T15:36:34.198Z,22.86
2024-05-09T15:39:02.790Z,22.72
2024-05-09T15:41:37.232Z,22.76
2024-05-09T15:44:07.622Z,22.56
2024-05-09T15:46:42.294Z,22.27
2024-05-09T15:49:12.924Z,22.27
2024-05-09T15:51:41.357Z,22.66
2024-05-09T15:54:12.892Z,22.48
2024-05-09T15:56:47.331Z,22.34
2024-05-09T15:59:18.986Z,22.36
2024-05-09T16:01:49.229Z,22.32
2024-05-09T16:04:20.939Z,22.22
2024-05-09T16:06:50.620Z,22.34
2024-05-09T16:09:22.717Z,22.07
2024-05-09T16:11:51.902Z,22.05
2024-05-09T16:14:22.426Z,22.02
2024-05-09T16:16:53.450Z,21.94
2024-05-09T16:19:24.936Z,22.00
2024-05-09T16:21:53.092Z,21.94
2024-05-09T16:24:24.252Z,21.74
2024-05-09T16:26:52.719Z,21.73
2024-05-09T16:29:23.471Z,21.80
2024-05-09T16:31:53.610Z,21.78
2024-05-09T16:34:24.780Z,21.64
2024-05-09T16:36:52.716Z,21.66
2024-05-09T16:39:23.966Z,21.54
2024-05-09T16:41:55.285Z,21.61
2024-05-09T16:44:26.916Z,21.53
2024-05-09T16:47:00.559Z,21.49
2024-05-09T16:49:28.269Z,21.39
2024-05-09T16:51:59.410Z,21.28
2024-05-09T16:54:27.343Z,21.15
2024-05-09T16:56:58.867Z,21.18
2024-05-09T16:59:27.398Z,21.13
2024-05-09T17:02:01.216Z,21.12
2024-05-09T17:04:29.023Z,20.95
2024-05-09T17:06:59.899Z,20.92
2024-05-09T17:09:28.353Z,20.87
2024-05-09T17:11:59.338Z,20.65
2024-05-09T17:14:30.434Z,20.50
2024-05-09T17:17:04.584Z,20.32
2024-05-09T17:19:38.730Z,20.13
2024-05-09T17:22:06.986Z,20.06
2024-05-09T17:24:38.166Z,20.00
2024-05-09T17:27:09.385Z,19.85
2024-05-09T17:29:41.109Z,19.72
2024-05-09T17:32:13.562Z,19.67
2024-05-09T17:34:46.361Z,19.65
2024-05-09T17:37:14.699Z,19.53
2024-05-09T17:39:45.972Z,19.38
2024-05-09T17:42:15.074Z,19.27
2024-05-09T17:44:45.793Z,19.11
2024-05-09T17:47:16.346Z,18.80
2024-05-09T17:49:47.171Z,18.72
2024-05-09T17:52:14.827Z,18.61
2024-05-09T17:54:45.692Z,18.41
2024-05-09T17:57:15.870Z,18.34
2024-05-09T17:59:47.120Z,18.23
2024-05-09T18:02:17.472Z,18.08
2024-05-09T18:04:49.156Z,18.03
2024-05-09T18:07:18.857Z,17.86
2024-05-09T18:09:50.143Z,17.75
2024-05-09T18:12:18.750Z,17.59
2024-05-09T18:14:51.019Z,17.48
2024-05-09T18:17:25.272Z,17.34
2024-05-09T18:19:56.818Z,17.24
2024-05-09T18:22:25.342Z,17.07
2024-05-09T18:24:57.360Z,17.00
2024-05-09T18:27:25.977Z,16.73
2024-05-09T18:29:56.957Z,16.64
2024-05-09T18:32:29.065Z,16.53
2024-05-09T18:34:59.944Z,16.34
2024-05-09T18:37:28.432Z,16.28
2024-05-09T18:40:00.703Z,16.21
2024-05-09T18:42:29.048Z,16.13
2024-05-09T18:45:01.445Z,16.02
2024-05-09T18:47:33.244Z,16.00
2024-05-09T18:50:03.831Z,15.84
2024-05-09T18:52:34.617Z,15.71
2024-05-09T18:55:06.541Z,15.57
2024-05-09T18:57:34.974Z,15.57
2024-05-09T19:00:08.711Z,15.53
2024-05-09T19:02:42.923Z,15.51
2024-05-09T19:05:14.998Z,15.39
2024-05-09T19:07:44.727Z,15.36
2024-05-09T19:10:22.497Z,15.29
2024-05-09T19:12:54.106Z,15.13
2024-05-09T19:15:25.887Z,14.99
2024-05-09T19:17:57.767Z,14.96
2024-05-09T19:20:33.792Z,14.88
2024-05-09T19:23:03.404Z,14.86
2024-05-09T19:25:34.714Z,14.79
2024-05-09T19:28:04.168Z,14.72
2024-05-09T19:30:40.270Z,14.69
2024-05-09T19:33:13.992Z,14.65
2024-05-09T19:35:46.726Z,14.64
2024-05-09T19:38:17.355Z,14.56
2024-05-09T19:40:49.439Z,14.45
2024-05-09T19:43:17.888Z,14.42
2024-05-09T19:45:49.282Z,14.33
2024-05-09T19:48:21.942Z,14.24
2024-05-09T19:50:53.918Z,14.19
2024-05-09T19:53:21.744Z,14.10
2024-05-09T19:55:53.763Z,14.02
2024-05-09T19:58:21.944Z,13.98
2024-05-09T20:00:53.946Z,13.90
2024-05-09T20:03:25.136Z,13.82
2024-05-09T20:05:56.140Z,13.78
2024-05-09T20:08:24.366Z,13.78
2024-05-09T20:10:55.129Z,13.69
2024-05-09T20:13:23.517Z,13.61
2024-05-09T20:15:54.510Z,13.57
2024-05-09T20:18:26.446Z,13.57
2024-05-09T20:21:01.801Z,13.57
2024-05-09T20:23:30.451Z,13.55
2024-05-09T20:26:02.038Z,13.61
2024-05-09T20:28:30.394Z,13.61
2024-05-09T20:31:01.994Z,13.62
2024-05-09T20:33:33.126Z,13.62
2024-05-09T20:36:03.450Z,13.59
2024-05-09T20:38:31.873Z,13.59
2024-05-09T20:41:04.230Z,13.44
2024-05-09T20:43:32.463Z,13.18
2024-05-09T20:46:04.112Z,12.79
2024-05-09T20:48:35.110Z,12.67
2024-05-09T20:51:06.862Z,12.56
2024-05-09T20:53:34.978Z,12.49
2024-05-09T20:56:05.470Z,12.53
2024-05-09T20:58:34.326Z,12.41
2024-05-09T21:01:05.016Z,12.49
2024-05-09T21:03:38.695Z,12.42
2024-05-09T21:06:10.671Z,12.50
2024-05-09T21:08:38.383Z,12.45
2024-05-09T21:11:10.035Z,12.44
2024-05-09T21:13:38.059Z,12.41
2024-05-09T21:16:11.551Z,12.42
2024-05-09T21:18:42.728Z,12.49
2024-05-09T21:21:14.343Z,12.52
2024-05-09T21:23:41.837Z,12.31
2024-05-09T21:26:13.687Z,12.20
2024-05-09T21:28:43.137Z,12.15
2024-05-09T21:31:14.237Z,12.17
2024-05-09T21:33:45.324Z,12.24
2024-05-09T21:36:16.116Z,12.17
2024-05-09T21:38:44.069Z,12.11
2024-05-09T21:41:14.491Z,12.05
2024-05-09T21:43:42.707Z,12.08
2024-05-09T21:46:13.839Z,12.02
2024-05-09T21:48:42.038Z,12.13
2024-05-09T21:51:18.937Z,12.05
2024-05-09T21:53:46.979Z,11.98
2024-05-09T21:56:17.375Z,11.91
2024-05-09T21:58:45.559Z,11.81
2024-05-09T22:01:17.026Z,11.81
2024-05-09T22:03:45.784Z,11.74
2024-05-09T22:06:19.174Z,11.60
2024-05-09T22:08:47.541Z,11.57
2024-05-09T22:11:18.739Z,11.57
2024-05-09T22:13:46.833Z,11.47
2024-05-09T22:16:17.153Z,11.46
2024-05-09T22:18:46.781Z,11.40
2024-05-09T22:21:20.647Z,11.38
2024-05-09T22:23:48.395Z,11.28
2024-05-09T22:26:19.363Z,11.23
2024-05-09T22:28:48.254Z,11.26
2024-05-09T22:31:18.898Z,11.16
2024-05-09T22:33:47.966Z,11.02
2024-05-09T22:36:23.409Z,11.00
2024-05-09T22:38:52.132Z,11.02
2024-05-09T22:41:22.660Z,10.94
2024-05-09T22:43:51.282Z,10.87
2024-05-09T22:46:22.142Z,10.81
2024-05-09T22:48:52.086Z,10.77
2024-05-09T22:51:27.477Z,10.73
2024-05-09T22:53:56.144Z,10.59
2024-05-09T22:56:29.403Z,10.47
2024-05-09T22:58:57.725Z,10.40
2024-05-09T23:01:28.746Z,10.37
2024-05-09T23:03:58.784Z,10.44
2024-05-09T23:06:35.183Z,10.32
2024-05-09T23:09:03.641Z,10.36
2024-05-09T23:11:35.015Z,10.46
2024-05-09T23:14:04.059Z,10.34
2024-05-09T23:16:34.968Z,10.30
2024-05-09T23:19:03.051Z,10.34
2024-05-09T23:21:41.456Z,10.25
2024-05-09T23:24:09.150Z,10.17
2024-05-09T23:26:40.094Z,10.13
2024-05-09T23:29:07.611Z,9.91
2024-05-09T23:31:38.544Z,9.81
2024-05-09T23:34:06.149Z,9.79
2024-05-09T23:36:39.051Z,9.77
2024-05-09T23:39:08.146Z,9.81
2024-05-09T23:41:39.470Z,9.84
2024-05-09T23:44:07.831Z,9.91
2024-05-09T23:46:39.088Z,9.88
2024-05-09T23:49:07.504Z,9.88
2024-05-09T23:51:42.264Z,9.95
2024-05-09T23:54:11.368Z,9.95
2024-05-09T23:56:41.717Z,9.99
2024-05-09T23:59:11.676Z,10.20
